createdAt,value
2022-10-11T00:01:53.221Z,92121.44
2022-10-11T00:04:19.883Z,92114.44
2022-10-11T00:06:47.436Z,92113.19
2022-10-11T00:09:14.814Z,92106.97
2022-10-11T00:11:41.782Z,92116.44
2022-10-11T00:14:13.613Z,92115.22
2022-10-11T00:16:44.320Z,92108.34
2022-10-11T00:19:11.925Z,92103.78
2022-10-11T00:21:39.469Z,92080.03
2022-10-11T00:24:06.549Z,92103.94
2022-10-11T00:26:33.260Z,92097.84
2022-10-11T00:28:59.903Z,92091.97
2022-10-11T00:31:26.643Z,92098.69
2022-10-11T00:33:54.185Z,92088.97
2022-10-11T00:36:22.286Z,92083.16
2022-10-11T00:38:49.164Z,92074.88
2022-10-11T00:41:16.793Z,92077.59
2022-10-11T00:43:44.479Z,92073.78
2022-10-11T00:46:14.150Z,92071.69
2022-10-11T00:48:42.489Z,92068.31
2022-10-11T00:51:25.867Z,92066.69
2022-10-11T00:53:54.025Z,92068.97
2022-10-11T00:56:31.259Z,92070.81
2022-10-11T00:58:59.092Z,92064.00
2022-10-11T01:01:26.225Z,92066.09
2022-10-11T01:03:53.071Z,92022.56
2022-10-11T01:06:19.772Z,92057.97
2022-10-11T01:08:47.164Z,92057.34
2022-10-11T01:11:17.322Z,92044.00
2022-10-11T01:13:54.075Z,92040.84
2022-10-11T01:16:30.038Z,92046.19
2022-10-11T01:19:17.453Z,92043.22
2022-10-11T01:22:07.473Z,92039.94
2022-10-11T01:25:14.989Z,92042.06
2022-10-11T01:28:15.824Z,92040.03
2022-10-11T01:30:43.642Z,92038.88
2022-10-11T01:33:54.542Z,92038.84
2022-10-11T01:36:39.217Z,92037.59
2022-10-11T01:39:21.816Z,92034.66
2022-10-11T01:41:52.610Z,92021.38
2022-10-11T01:44:20.731Z,92023.72
2022-10-11T01:46:47.337Z,92026.94
2022-10-11T01:49:14.069Z,92029.28
2022-10-11T01:51:47.659Z,92021.31
2022-10-11T01:55:08.527Z,92023.41
2022-10-11T01:58:00.795Z,92023.84
2022-10-11T02:00:34.247Z,92020.09
2022-10-11T02:03:19.390Z,92024.09
2022-10-11T02:06:01.249Z,92016.97
2022-10-11T02:09:10.185Z,92023.31
2022-10-11T02:11:37.835Z,92020.53
2022-10-11T02:14:21.605Z,92015.72
2022-10-11T02:16:57.902Z,92025.25
2022-10-11T02:19:32.846Z,92026.97
2022-10-11T02:22:06.327Z,92027.72
2022-10-11T02:24:36.211Z,92019.34
2022-10-11T02:27:05.756Z,92032.59
2022-10-11T02:29:36.165Z,92034.22
2022-10-11T02:32:02.944Z,92037.78
2022-10-11T02:34:44.626Z,92036.59
2022-10-11T02:37:24.028Z,92031.91
2022-10-11T02:40:04.136Z,92026.63
2022-10-11T02:42:37.392Z,92029.25
2022-10-11T02:45:11.981Z,92019.34
2022-10-11T02:47:40.877Z,92024.59
2022-10-11T02:50:07.974Z,92002.47
2022-10-11T02:52:34.768Z,92018.53
2022-10-11T02:55:01.467Z,92027.31
2022-10-11T02:57:28.125Z,92027.31
2022-10-11T02:59:54.797Z,92012.94
2022-10-11T03:02:21.484Z,92012.34
2022-10-11T03:04:48.232Z,92021.06
2022-10-11T03:07:15.008Z,92003.63
2022-10-11T03:09:41.733Z,91997.16
2022-10-11T03:12:08.492Z,91998.25
2022-10-11T03:14:35.128Z,92005.94
2022-10-11T03:17:23.815Z,92006.50
2022-10-11T03:19:49.212Z,92005.91
2022-10-11T03:22:16.383Z,92004.16
2022-10-11T03:24:43.029Z,92010.41
2022-10-11T03:27:09.702Z,92001.88
2022-10-11T03:29:36.446Z,92008.06
2022-10-11T03:32:03.394Z,92008.03
2022-10-11T03:34:30.030Z,92023.75
2022-10-11T03:36:56.765Z,92020.13
2022-10-11T03:39:23.634Z,92015.28
2022-10-11T03:41:50.575Z,92016.53
2022-10-11T03:44:17.298Z,92011.38
2022-10-11T03:46:43.913Z,92013.50
2022-10-11T03:49:10.519Z,92011.38
2022-10-11T03:51:37.164Z,92004.44
2022-10-11T03:54:03.845Z,92015.50
2022-10-11T03:56:30.524Z,92004.78
2022-10-11T03:58:57.135Z,92008.94
2022-10-11T04:01:23.831Z,92006.25
2022-10-11T04:03:50.471Z,92002.94
2022-10-11T04:06:17.159Z,91994.69
2022-10-11T04:08:43.780Z,92001.69
2022-10-11T04:11:10.461Z,91999.00
2022-10-11T04:13:37.166Z,92000.75
2022-10-11T04:16:04.356Z,91982.25
2022-10-11T04:18:31.319Z,92010.47
2022-10-11T04:20:57.951Z,92012.50
2022-10-11T04:23:24.983Z,92013.66
2022-10-11T04:25:51.594Z,92006.41
2022-10-11T04:28:18.323Z,91998.66
2022-10-11T04:30:44.963Z,92005.16
2022-10-11T04:33:11.962Z,92002.94
2022-10-11T04:35:38.682Z,92008.19
2022-10-11T04:38:05.435Z,91999.25
2022-10-11T04:40:32.895Z,91994.28
2022-10-11T04:42:59.599Z,92001.69
2022-10-11T04:45:26.513Z,91997.50
2022-10-11T04:47:53.214Z,92003.94
2022-10-11T04:50:19.918Z,91993.16
2022-10-11T04:52:46.578Z,91997.31
2022-10-11T04:55:13.348Z,92002.94
2022-10-11T04:57:39.975Z,92015.31
2022-10-11T05:00:07.692Z,92012.25
2022-10-11T05:02:34.422Z,92010.31
2022-10-11T05:05:01.219Z,92006.69
2022-10-11T05:07:27.868Z,92015.06
2022-10-11T05:09:54.765Z,92014.97
2022-10-11T05:12:21.505Z,92002.66
2022-10-11T05:14:48.201Z,92010.41
2022-10-11T05:17:14.965Z,92004.31
2022-10-11T05:19:41.693Z,92005.59
2022-10-11T05:22:08.395Z,92006.03
2022-10-11T05:24:35.120Z,92012.50
2022-10-11T05:27:03.548Z,92010.53
2022-10-11T05:29:30.376Z,92011.91
2022-10-11T05:31:57.788Z,92010.69
2022-10-11T05:34:24.671Z,92011.00
2022-10-11T05:36:51.400Z,92021.34
2022-10-11T05:39:18.113Z,92013.56
2022-10-11T05:41:45.055Z,92003.78
2022-10-11T05:44:11.710Z,92016.72
2022-10-11T05:46:39.115Z,92009.56
2022-10-11T05:49:06.184Z,92013.81
2022-10-11T05:51:33.337Z,92022.63
2022-10-11T05:54:00.447Z,92022.84
2022-10-11T05:56:27.248Z,92013.00
2022-10-11T05:58:55.664Z,92015.81
2022-10-11T06:01:26.228Z,92023.22
2022-10-11T06:03:53.328Z,92017.31
2022-10-11T06:06:20.340Z,92015.59
2022-10-11T06:08:47.891Z,92001.50
2022-10-11T06:11:26.360Z,92023.56
2022-10-11T06:13:54.904Z,92017.97
2022-10-11T06:16:21.556Z,92016.09
2022-10-11T06:18:48.302Z,92019.13
2022-10-11T06:21:15.604Z,92017.72
2022-10-11T06:23:42.377Z,92016.16
2022-10-11T06:26:10.558Z,92011.06
2022-10-11T06:28:37.886Z,92001.47
2022-10-11T06:31:06.696Z,92021.59
2022-10-11T06:33:34.225Z,92023.22
2022-10-11T06:36:04.032Z,92019.56
2022-10-11T06:38:30.907Z,92019.00
2022-10-11T06:40:58.131Z,92018.34
2022-10-11T06:43:25.452Z,92023.28
2022-10-11T06:45:52.104Z,92021.81
2022-10-11T06:48:18.804Z,92015.91
2022-10-11T06:50:59.523Z,92024.94
2022-10-11T06:53:28.220Z,92021.53
2022-10-11T06:56:02.517Z,92019.78
2022-10-11T06:58:29.552Z,92029.41
2022-10-11T07:01:00.554Z,92019.34
2022-10-11T07:03:27.259Z,92013.94
2022-10-11T07:05:53.954Z,92013.66
2022-10-11T07:08:20.568Z,92014.78
2022-10-11T07:10:47.328Z,92006.16
2022-10-11T07:13:17.202Z,92014.94
2022-10-11T07:15:44.176Z,92009.75
2022-10-11T07:18:10.995Z,92017.03
2022-10-11T07:20:37.937Z,92011.50
2022-10-11T07:23:04.670Z,92005.16
2022-10-11T07:25:31.400Z,92011.78
2022-10-11T07:27:58.068Z,92011.06
2022-10-11T07:30:24.771Z,92003.00
2022-10-11T07:32:51.409Z,91997.47
2022-10-11T07:35:18.231Z,91985.03
2022-10-11T07:37:44.904Z,91977.53
2022-10-11T07:40:11.637Z,91987.63
2022-10-11T07:42:38.515Z,91977.53
2022-10-11T07:45:28.712Z,91972.81
2022-10-11T07:47:56.354Z,91979.44
2022-10-11T07:50:23.548Z,91981.66
2022-10-11T07:52:50.478Z,91991.53
2022-10-11T07:55:17.239Z,91983.94
2022-10-11T07:57:43.903Z,91979.97
2022-10-11T08:00:11.161Z,91966.97
2022-10-11T08:02:37.783Z,91978.44
2022-10-11T08:05:05.233Z,91985.00
2022-10-11T08:07:31.941Z,91989.50
2022-10-11T08:09:58.530Z,91981.44
2022-10-11T08:12:25.266Z,91986.25
2022-10-11T08:14:54.785Z,91958.81
2022-10-11T08:17:21.536Z,91969.09
2022-10-11T08:19:48.395Z,91963.66
2022-10-11T08:22:15.148Z,91958.47
2022-10-11T08:24:41.835Z,91955.47
2022-10-11T08:27:08.646Z,91964.50
2022-10-11T08:29:35.349Z,91969.50
2022-10-11T08:32:02.053Z,91973.16
2022-10-11T08:34:28.795Z,91968.09
2022-10-11T08:36:55.445Z,91968.06
2022-10-11T08:39:22.120Z,91964.81
2022-10-11T08:41:55.368Z,91978.63
2022-10-11T08:47:41.173Z,91965.44
2022-10-11T08:50:18.516Z,91969.31
2022-10-11T08:52:45.170Z,91968.75
2022-10-11T08:55:17.947Z,91968.09
2022-10-11T08:57:48.633Z,91945.72
2022-10-11T09:00:17.824Z,91956.53
2022-10-11T09:03:07.593Z,91950.31
2022-10-11T09:05:42.147Z,91940.22
2022-10-11T09:08:24.184Z,91962.88
2022-10-11T09:10:59.981Z,91955.53
2022-10-11T09:13:53.749Z,91949.09
2022-10-11T09:16:51.016Z,91944.22
2022-10-11T09:19:53.173Z,91947.16
2022-10-11T09:22:42.615Z,91947.88
2022-10-11T09:25:21.508Z,91946.38
2022-10-11T09:28:03.831Z,91940.69
2022-10-11T09:30:32.279Z,91934.41
2022-10-11T09:33:04.549Z,91939.63
2022-10-11T09:35:37.811Z,91944.00
2022-10-11T09:38:14.454Z,91940.19
2022-10-11T09:41:04.532Z,91941.66
2022-10-11T09:43:31.480Z,91937.00
2022-10-11T09:45:58.390Z,91932.56
2022-10-11T09:48:38.885Z,91906.44
2022-10-11T09:51:14.828Z,91929.97
2022-10-11T09:53:58.827Z,91939.44
2022-10-11T09:56:28.066Z,91936.16
2022-10-11T09:59:08.176Z,91936.19
2022-10-11T10:01:35.648Z,91946.41
2022-10-11T10:04:10.384Z,91949.72
2022-10-11T10:06:37.686Z,91953.66
2022-10-11T10:09:28.559Z,91955.00
2022-10-11T10:11:56.608Z,91948.13
2022-10-11T10:14:27.187Z,91949.56
2022-10-11T10:17:06.140Z,91936.06
2022-10-11T10:19:45.018Z,91921.16
2022-10-11T10:22:19.823Z,91901.84
2022-10-11T10:24:49.200Z,91902.06
2022-10-11T10:27:21.227Z,91916.19
2022-10-11T10:30:09.153Z,91920.88
2022-10-11T10:33:00.515Z,91904.19
2022-10-11T10:35:35.148Z,91882.09
2022-10-11T10:38:11.602Z,91896.41
2022-10-11T10:40:47.433Z,91885.50
2022-10-11T10:43:27.026Z,91877.53
2022-10-11T10:46:30.043Z,91879.69
2022-10-11T10:49:51.897Z,91893.34
2022-10-11T10:52:13.447Z,91875.63
2022-10-11T10:54:52.687Z,91878.25
2022-10-11T10:57:26.049Z,91866.84
2022-10-11T11:00:20.159Z,91872.59
2022-10-11T11:03:01.045Z,91863.03
2022-10-11T11:05:30.343Z,91856.03
2022-10-11T11:08:13.093Z,91856.41
2022-10-11T11:11:00.357Z,91864.44
2022-10-11T11:14:02.439Z,91867.75
2022-10-11T11:16:32.166Z,91866.41
2022-10-11T11:19:24.153Z,91862.88
2022-10-11T11:22:02.233Z,91857.47
2022-10-11T11:24:37.738Z,91868.47
2022-10-11T11:27:16.581Z,91859.72
2022-10-11T11:30:04.942Z,91867.50
2022-10-11T11:33:06.932Z,91862.84
2022-10-11T11:35:42.461Z,91865.97
2022-10-11T11:38:54.152Z,91862.69
2022-10-11T11:41:40.936Z,91836.53
2022-10-11T11:44:17.536Z,91850.34
2022-10-11T11:47:13.211Z,91855.28
2022-10-11T11:49:47.667Z,91856.91
2022-10-11T11:52:33.670Z,91861.59
2022-10-11T11:55:06.098Z,91863.22
2022-10-11T11:58:14.462Z,91850.75
2022-10-11T12:01:04.026Z,91850.06
2022-10-11T12:03:41.555Z,91848.44
2022-10-11T12:06:17.520Z,91845.88
2022-10-11T12:08:48.510Z,91850.63
2022-10-11T12:11:25.499Z,91856.34
2022-10-11T12:13:53.997Z,91859.25
2022-10-11T12:16:22.196Z,91845.47
2022-10-11T12:18:57.888Z,91845.72
2022-10-11T12:21:43.524Z,91839.94
2022-10-11T12:24:10.233Z,91845.78
2022-10-11T12:26:39.898Z,91844.22
2022-10-11T12:29:18.962Z,91840.63
2022-10-11T12:32:14.160Z,91839.13
2022-10-11T12:34:43.341Z,91839.16
2022-10-11T12:37:19.569Z,91845.66
2022-10-11T12:39:49.247Z,91844.81
2022-10-11T12:42:32.532Z,91849.78
2022-10-11T12:45:11.495Z,91852.31
2022-10-11T12:47:48.191Z,91849.38
2022-10-11T12:50:48.666Z,91852.72
2022-10-11T12:54:25.397Z,91850.03
2022-10-11T12:57:19.476Z,91857.59
2022-10-11T12:59:46.717Z,91851.97
2022-10-11T13:02:29.233Z,91851.19
2022-10-11T13:05:21.978Z,91849.97
2022-10-11T13:07:51.955Z,91846.09
2022-10-11T13:10:30.807Z,91848.03
2022-10-11T13:13:04.305Z,91852.53
2022-10-11T13:15:31.774Z,91833.56
2022-10-11T13:18:00.530Z,91838.66
2022-10-11T13:20:36.233Z,91844.75
2022-10-11T13:23:20.727Z,91842.59
2022-10-11T13:25:47.458Z,91841.06
2022-10-11T13:28:15.599Z,91838.03
2022-10-11T13:30:46.647Z,91836.19
2022-10-11T13:33:25.067Z,91830.97
2022-10-11T13:35:52.807Z,91834.50
2022-10-11T13:38:23.693Z,91828.72
2022-10-11T13:40:51.304Z,91832.50
2022-10-11T13:43:22.134Z,91829.56
2022-10-11T13:45:48.963Z,91832.34
2022-10-11T13:48:16.912Z,91836.53
2022-10-11T13:50:51.251Z,91844.56
2022-10-11T13:53:17.878Z,91846.72
2022-10-11T13:55:56.302Z,91845.78
2022-10-11T13:58:58.970Z,91833.59
2022-10-11T14:01:39.565Z,91842.16
2022-10-11T14:04:11.370Z,91836.91
2022-10-11T14:06:39.560Z,91836.47
2022-10-11T14:09:07.028Z,91832.78
2022-10-11T14:11:36.755Z,91826.44
2022-10-11T14:14:28.199Z,91835.88
2022-10-11T14:16:56.903Z,91822.84
2022-10-11T14:19:24.897Z,91834.28
2022-10-11T14:21:53.335Z,91837.84
2022-10-11T14:24:20.744Z,91828.78
2022-10-11T14:26:52.821Z,91828.09
2022-10-11T14:29:32.240Z,91833.28
2022-10-11T14:32:06.087Z,91839.69
2022-10-11T14:34:34.495Z,91824.91
2022-10-11T14:37:01.173Z,91831.41
2022-10-11T14:39:31.028Z,91820.00
2022-10-11T14:41:57.766Z,91817.44
2022-10-11T14:44:25.645Z,91832.63
2022-10-11T14:46:54.805Z,91825.19
2022-10-11T14:49:28.051Z,91824.28
2022-10-11T14:51:57.570Z,91828.06
2022-10-11T14:54:25.915Z,91833.13
2022-10-11T14:56:55.975Z,91815.13
2022-10-11T14:59:25.353Z,91820.19
2022-10-11T15:01:54.147Z,91833.47
2022-10-11T15:04:21.975Z,91836.84
2022-10-11T15:06:51.186Z,91833.00
2022-10-11T15:09:20.864Z,91818.06
2022-10-11T15:11:49.289Z,91828.69
2022-10-11T15:14:16.258Z,91820.41
2022-10-11T15:16:43.482Z,91829.38
2022-10-11T15:19:21.806Z,91819.66
2022-10-11T15:21:49.251Z,91837.84
2022-10-11T15:24:16.273Z,91834.06
2022-10-11T15:26:44.058Z,91834.81
2022-10-11T15:29:11.734Z,91835.19
2022-10-11T15:31:39.506Z,91844.56
2022-10-11T15:34:06.268Z,91851.13
2022-10-11T15:36:33.941Z,91847.75
2022-10-11T15:39:01.791Z,91848.53
2022-10-11T15:41:28.641Z,91853.81
2022-10-11T15:43:55.313Z,91828.97
2022-10-11T15:46:23.438Z,91850.00
2022-10-11T15:48:51.834Z,91843.59
2022-10-11T15:51:18.667Z,91831.22
2022-10-11T15:53:45.604Z,91841.00
2022-10-11T15:56:19.428Z,91824.47
2022-10-11T15:58:46.397Z,91846.41
2022-10-11T16:01:16.468Z,91859.25
2022-10-11T16:03:44.008Z,91855.50
2022-10-11T16:06:11.930Z,91855.50
2022-10-11T16:08:39.297Z,91855.13
2022-10-11T16:11:07.991Z,91857.78
2022-10-11T16:13:35.304Z,91867.53
2022-10-11T16:16:03.116Z,91877.34
2022-10-11T16:18:34.885Z,91876.22
2022-10-11T16:21:07.043Z,91872.06
2022-10-11T16:23:34.820Z,91870.94
2022-10-11T16:26:05.743Z,91881.13
2022-10-11T16:28:32.898Z,91876.22
2022-10-11T16:30:59.739Z,91884.53
2022-10-11T16:33:26.933Z,91888.66
2022-10-11T16:35:53.677Z,91890.19
2022-10-11T16:38:20.459Z,91888.28
2022-10-11T16:40:47.241Z,91893.19
2022-10-11T16:43:13.911Z,91893.19
2022-10-11T16:45:40.584Z,91896.94
2022-10-11T16:48:07.274Z,91902.94
2022-10-11T16:50:39.142Z,91900.63
2022-10-11T16:53:06.518Z,91903.97
2022-10-11T16:55:33.333Z,91901.41
2022-10-11T16:58:00.029Z,91903.94
2022-10-11T17:00:27.524Z,91911.88
2022-10-11T17:02:54.262Z,91919.81
2022-10-11T17:05:21.028Z,91915.63
2022-10-11T17:07:47.754Z,91917.16
2022-10-11T17:10:14.427Z,91917.91
2022-10-11T17:12:41.239Z,91908.50
2022-10-11T17:15:11.068Z,91914.13
2022-10-11T17:17:37.694Z,91911.47
2022-10-11T17:20:04.827Z,91913.19
2022-10-11T17:22:31.932Z,91908.31
2022-10-11T17:25:01.507Z,91911.13
2022-10-11T17:27:28.580Z,91916.03
2022-10-11T17:29:55.269Z,91918.50
2022-10-11T17:32:22.010Z,91913.41
2022-10-11T17:34:48.647Z,91919.88
2022-10-11T17:37:15.392Z,91921.53
2022-10-11T17:39:42.129Z,91921.22
2022-10-11T17:42:09.211Z,91920.06
2022-10-11T17:44:36.477Z,91917.78
2022-10-11T17:47:03.729Z,91913.25
2022-10-11T17:49:30.628Z,91924.59
2022-10-11T17:51:58.193Z,91916.19
2022-10-11T17:54:26.011Z,91919.94
2022-10-11T17:56:52.799Z,91916.66
2022-10-11T17:59:27.415Z,91898.94
2022-10-11T18:01:54.623Z,91920.94
2022-10-11T18:04:22.337Z,91907.44
2022-10-11T18:06:49.434Z,91911.31
2022-10-11T18:09:18.450Z,91913.44
2022-10-11T18:11:45.520Z,91911.56
2022-10-11T18:14:12.240Z,91912.59
2022-10-11T18:16:39.642Z,91910.47
2022-10-11T18:19:08.650Z,91910.59
2022-10-11T18:21:37.732Z,91912.81
2022-10-11T18:24:12.144Z,91905.28
2022-10-11T18:26:39.413Z,91903.47
2022-10-11T18:29:06.743Z,91903.19
2022-10-11T18:31:35.246Z,91913.16
2022-10-11T18:34:03.681Z,91910.56
2022-10-11T18:36:31.215Z,91909.34
2022-10-11T18:39:01.104Z,91895.38
2022-10-11T18:41:31.809Z,91909.78
2022-10-11T18:44:01.712Z,91906.84
2022-10-11T18:46:29.499Z,91909.16
2022-10-11T18:48:57.695Z,91914.41
2022-10-11T18:51:36.292Z,91903.63
2022-10-11T18:54:04.365Z,91906.28
2022-10-11T18:56:33.556Z,91910.59
2022-10-11T18:59:00.432Z,91912.16
2022-10-11T19:01:32.351Z,91906.75
2022-10-11T19:04:01.303Z,91908.59
2022-10-11T19:06:31.971Z,91907.84
2022-10-11T19:09:05.534Z,91913.41
2022-10-11T19:11:32.754Z,91898.72
2022-10-11T19:14:07.172Z,91916.41
2022-10-11T19:16:37.572Z,91911.09
2022-10-11T19:19:04.987Z,91914.19
2022-10-11T19:21:31.869Z,91911.63
2022-10-11T19:23:58.586Z,91918.41
2022-10-11T19:26:27.603Z,91916.69
2022-10-11T19:29:02.750Z,91900.09
2022-10-11T19:31:32.817Z,91909.97
2022-10-11T19:33:59.739Z,91918.75
2022-10-11T19:36:27.220Z,91918.56
2022-10-11T19:38:57.724Z,91916.78
2022-10-11T19:41:26.179Z,91906.56
2022-10-11T19:43:53.677Z,91918.31
2022-10-11T19:49:09.654Z,91928.72
2022-10-11T19:51:37.435Z,91920.13
2022-10-11T19:54:10.279Z,91923.59
2022-10-11T19:56:37.019Z,91927.97
2022-10-11T19:59:06.361Z,91925.81
2022-10-11T20:01:37.867Z,91930.13
2022-10-11T20:04:07.716Z,91910.44
2022-10-11T20:06:38.590Z,91937.28
2022-10-11T20:09:28.098Z,91920.69
2022-10-11T20:11:53.837Z,91924.81
2022-10-11T20:14:20.656Z,91930.94
2022-10-11T20:16:50.079Z,91930.16
2022-10-11T20:19:17.450Z,91930.69
2022-10-11T20:21:45.079Z,91920.56
2022-10-11T20:24:12.022Z,91922.25
2022-10-11T20:26:39.434Z,91929.47
2022-10-11T20:29:06.544Z,91932.88
2022-10-11T20:31:38.218Z,91929.75
2022-10-11T20:34:07.440Z,91926.47
2022-10-11T20:36:36.120Z,91935.78
2022-10-11T20:39:04.672Z,91930.31
2022-10-11T20:41:34.634Z,91932.69
2022-10-11T20:44:02.925Z,91936.97
2022-10-11T20:46:32.416Z,91940.38
2022-10-11T20:49:02.341Z,91937.41
2022-10-11T20:51:31.224Z,91938.38
2022-10-11T20:53:58.706Z,91939.25
2022-10-11T20:56:25.484Z,91937.66
2022-10-11T20:58:54.278Z,91933.47
2022-10-11T21:01:27.240Z,91943.72
2022-10-11T21:03:54.787Z,91935.00
2022-10-11T21:06:21.437Z,91930.31
2022-10-11T21:08:48.248Z,91937.22
2022-10-11T21:11:15.056Z,91929.69
2022-10-11T21:13:41.708Z,91929.06
2022-10-11T21:16:15.021Z,91927.09
2022-10-11T21:18:42.440Z,91924.91
2022-10-11T21:21:14.534Z,91924.16
2022-10-11T21:23:42.303Z,91924.66
2022-10-11T21:26:11.852Z,91922.75
2022-10-11T21:28:39.496Z,91921.19
2022-10-11T21:31:07.882Z,91934.00
2022-10-11T21:33:35.227Z,91922.09
2022-10-11T21:36:09.794Z,91933.13
2022-10-11T21:38:37.069Z,91916.56
2022-10-11T21:41:10.084Z,91925.28
2022-10-11T21:43:38.414Z,91929.06
2022-10-11T21:46:21.910Z,91923.75
2022-10-11T21:48:52.446Z,91921.97
2022-10-11T21:51:23.525Z,91921.88
2022-10-11T21:53:50.600Z,91919.97
2022-10-11T21:56:17.309Z,91911.19
2022-10-11T21:58:47.064Z,91922.78
2022-10-11T22:01:14.870Z,91921.91
2022-10-11T22:03:41.745Z,91914.34
2022-10-11T22:06:08.485Z,91916.13
2022-10-11T22:08:35.406Z,91913.84
2022-10-11T22:11:02.193Z,91904.47
2022-10-11T22:13:31.239Z,91912.09
2022-10-11T22:15:57.964Z,91912.56
2022-10-11T22:18:25.186Z,91899.03
2022-10-11T22:20:52.337Z,91905.34
2022-10-11T22:23:19.333Z,91911.38
2022-10-11T22:25:46.266Z,91904.31
2022-10-11T22:28:13.345Z,91906.47
2022-10-11T22:30:40.216Z,91903.94
2022-10-11T22:33:06.862Z,91909.34
2022-10-11T22:35:37.436Z,91904.75
2022-10-11T22:38:06.094Z,91910.94
2022-10-11T22:40:32.812Z,91911.91
2022-10-11T22:42:59.495Z,91907.09
2022-10-11T22:45:26.202Z,91903.09
2022-10-11T22:47:52.819Z,91900.13
2022-10-11T22:50:19.467Z,91908.47
2022-10-11T22:52:46.173Z,91912.66
2022-10-11T22:55:17.534Z,91900.25
2022-10-11T22:57:46.463Z,91906.22
2022-10-11T23:00:13.497Z,91905.44
2022-10-11T23:02:40.207Z,91908.78
2022-10-11T23:05:07.115Z,91906.56
2022-10-11T23:07:34.009Z,91903.16
2022-10-11T23:10:00.954Z,91900.25
2022-10-11T23:12:27.710Z,91903.13
2022-10-11T23:14:54.355Z,91877.50
2022-10-11T23:17:21.088Z,91905.44
2022-10-11T23:19:47.874Z,91905.91
2022-10-11T23:22:14.666Z,91898.41
2022-10-11T23:24:41.466Z,91902.53
2022-10-11T23:27:09.069Z,91910.06
2022-10-11T23:29:35.931Z,91906.31
2022-10-11T23:32:02.796Z,91909.56
2022-10-11T23:34:29.444Z,91913.78
2022-10-11T23:36:56.130Z,91904.56
2022-10-11T23:39:22.763Z,91888.66
2022-10-11T23:41:49.512Z,91899.06
2022-10-11T23:44:16.217Z,91905.19
2022-10-11T23:46:42.827Z,91898.78
2022-10-11T23:49:09.513Z,91893.72
2022-10-11T23:51:36.226Z,91907.09
2022-10-11T23:54:03.038Z,91897.06
2022-10-11T23:56:30.044Z,91902.06
2022-10-11T23:58:57.016Z,91898.56
